Terminal Aerodrome Forecast
Issued by NWS Jackson, KY

Home | Current Version | Previous Version | Text Only | Print | Product List | Glossary On
Versions: 1 2 3 4 5 6 7 8 9 10 11 12 13 14 15 16 17 18 19 20 21
000
FTUS43 KJKL 181721
TAFLOZ
TAF
KLOZ 181721Z 1818/1918 12006KT P6SM FEW050 OVC250
     FM190400 08006KT P6SM VCSH SCT050 OVC100
     FM190700 11008KT 5SM -RA BR VCTS SCT060CB OVC100
     FM191100 12006KT 3SM SHRA VCTS BKN020 OVC060CB=

USA.gov is the U.S. government's official web portal to all federal, state and local government web resources and services.